Lovell, ME (04051)

4:50 AM EDT on October 22, 2014 (GMT -0400)
Creeper Hill, NW Cove Kezar Lake | Change Station
CLOSE
Current Station
Personal Weather Station
Location: Stow, ME
Elevation: 385 ft
Nearby Weather Stations
Active Advisory: Areal Flood Watch

Elev 385 ft 44.17 °N, 70.94 °W | Updated 1 second ago

Rain
Rain
44.8 °F
Feels Like 45 °F
N
0.0
Wind Variable Wind from North
Gusts 0.0 mph

Today
High -- | Low -- °F
--% Chance of Precip.
Yesterday
High -- | Low -- °F
Precip. -- in
7:07 AM 5:48 PM
Waning Crescent, 2% visible
Pressure 30.12 in
Visibility 10.0 miles
Clouds Mostly Cloudy 900 ft
Overcast 1400 ft
Windchill 45 °F
Dew Point 44 °F
Humidity 97%
Rainfall 0.20 in
Snow Depth Not available.
UV 0 out of 12
Pollen .10 out of 12
Air Quality Not available.
Flu Activity Sporadic
SPECI KIZG 220821Z AUTO 36005KT 10SM BKN009 OVC014 08/07 A3012 RMK AO2 RAE08 CIG 006V011 P0000 T00780067

More Conditions Fewer Conditions

Pressure 30.12 in
Visibility 10.0 miles
Clouds Mostly Cloudy 900 ft
Overcast 1400 ft
Windchill 45 °F
Dew Point 44 °F
Humidity 97%
Rainfall 0.20 in
Snow Depth Not available.
UV 0 out of 12
Pollen .10 out of 12
Air Quality Not available.
Flu Activity Sporadic
SPECI KIZG 220821Z AUTO 36005KT 10SM BKN009 OVC014 08/07 A3012 RMK AO2 RAE08 CIG 006V011 P0000 T00780067

More Conditions Fewer Conditions

10-Day Weather Forecast

Almanac

Astronomy

Oct. 22, 2014 Rise Set
Actual Time 7:07 AM EDT 5:48 PM EDT
Civil Twilight 6:37 AM EDT 6:17 PM EDT
Nautical Twilight 6:04 AM EDT 6:51 PM EDT
Astronomical Twilight 5:30 AM EDT 7:25 PM EDT
Moon 5:43 AM EDT 5:15 PM EDT
Length of Visible Light 11h 39m
Length of Day
10h 40m
Tomorrow will be 2m 52s shorter.
Waning Crescent, 2% of the Moon is Illuminated
Today
Waning Crescent
Oct 23
New
Oct 30
First Quarter
Nov 6
Full
Nov 14
Last Quarter

Today's Extremes

State Highs State Lows

Community

WunderPhotos

Upload Photos

1,763,889 photos uploaded!

Nearby

Air Quality

  Air Quality AQ Index Pollutant
Wednesday Good
OZONE
Wednesday Good
PM2.5
Thursday Good
OZONE
Thursday Good
PM2.5
Friday Good
OZONE
Friday Good
PM2.5
Saturday Good
OZONE
Saturday Good
PM2.5

Snow Depth

Station Depth Elevation
No new snow has been reported.

Earthquake Activity

City Distance Mag. Time & Date
No recent earthquake activity has been reported nearby.
Minimum magnitude displayed is 2.5.

Coastal Water Temperatures

Place Temperature
No Stations Reporting

Nearby Weather Stations